RWS Search Results


33891OI31-AUG-22CSAVSAVANNAH/HILTON HEAD INTLMX2M6009191KSAV 311653Z 00000KT 10SM SCT031 BKN075 BKN250 32/22 A2997 RMK AO2 SLP147 T03170217RWY 1
33890PD31-AUG-22DJEFJEFFERSON CITY MEMORIALPA32NULL91N/AKJEF 311153Z 00000KT 10SM CLR 14/13 A3013 RMK AO2 SLP189 T01440133 10178 20139 53007 $RWY 12
33889VPD30-AUG-22DSFOSAN FRANCISCO INTLNULLNULLVEHN/AKSFO 310256Z 28014KT 10SM FEW007 17/12 A2997 RMK AO2 SLP149 T01720122 51002RWY 28L
33888PD28-AUG-22CBEDLAURENCE G HANSCOM FLDC55BPA289191KBED 282051Z 12009KT 10SM SCT050 SCT070 27/18 A3014 RMK AO2 SLP215 T02720178 56012 $RWY 11
33887PD28-AUG-22DFCMFLYING CLOUDBE40NULL91N/AKFCM 281853Z 18009KT 10SM SCT020 OVC026 25/21 A2962 RMK AO2 SLP026 T02500206RWY 18
33886PD27-AUG-22DCHSCHARLESTON AFB/INTLB738NULL121N/AKCHS 271856Z 11007KT 10SM FEW027 BKN040 BKN200 30/22 A2996 RMK AO2 SLP146 T03000222RUNWAY 33
33885PD27-AUG-22DLAFPURDUE UNIVERSITYC72RNULL91N/AKLAF 271754Z VRB04KT 10SM SCT049 28/17 A3003 RMK AO2 SLP166 T02780167 10283 20156 58014RWY 10
33884PD27-AUG-22DORHWORCESTER RGNLC172NULL91N/AKORH 271754Z 01007KT 10SM SCT034 25/16 A3006 RMK AO2 SLP175 T02500161 10256 20206 50001RWY 11
33883OI27-AUG-22CSNSSALINAS MUNIC182C1729191KSNS 271953Z 31010KT 10SM CLR 22/13 A2988 RMK AO2 SLP126 T02220133RWY 26
33882PD27-AUG-22DPOUHUDSON VALLEY RGNLC172NULL91N/AKPOU 271653Z 36010KT 10SM SCT050 29/16 A3002 RMK AO2 SLP160 T02940156RWY 33
33881OI27-AUG-22CMLIQUAD CITY INTLBE35PA249191KMLI 271452Z 15009KT 10SM CLR 24/19 A3003 RMK AO2 SLP164 T02390194 58002RUNWAY 13/9
33880OI27-AUG-22CACTWACO RGNLSH33C4219191KACT 271451Z VRB03KT 10SM CLR 29/23 A2994 RMK AO2 SLP129 T02940233 50003RY19
33879VPD26-AUG-22CFMYPAGE FIELDNULLC172VEH91FMY 1553 UTC 10006KT 10SM SCT030 32/24 A3003RWY 23
33878VPD26-AUG-22DFMYPAGE FIELDNULLNULLVEHN/AFMY 1553 UTC 10006KT 10SM SCT030 32/24 A3003RWY 13
33877PD26-AUG-22DBKLBURKE LAKEFRONTC182NULL91N/AKBKL 261453Z 29011KT 7SM SCT026 SCT036 BKN060 24/19 A2996 RMK AO2 SLP141 T02440194 51007RWY 24R
33876VPD26-AUG-22DMTNMARTIN STATENULLNULLPEDN/AKMTN 261455Z 23004KT 10SM SCT070 28/21 A2999NULL
33875PD26-AUG-22DMFRROGUE VALLEY INTL - MEDFORDC180NULL91N/AKMFR 261653Z 00000KT 10SM CLR 24/14 A3002 RMK AO2 SLP152 T02440144RWY 32
33874VPD26-AUG-22DILGNEW CASTLENULLNULLVEHN/AKILG 261051Z 00000KT 9SM SCT095 23/21 A2997 RMK AO2 SLP147 T02330211 $RWY 1
33873PD25-AUG-22DHPNWESTCHESTER COUNTYPA32NULL91N/AKHPN 252056Z 28005KT 10SM FEW060 32/12 A2999 RMK AO2 SLP149 T03170117 56013RWY 29
33871PD25-AUG-22DYNGYOUNGSTOWN-WARREN RGNLPA28/ANULL91N/AKYNG 251951Z 23010G16KT 10SM BKN055 29/16 A3003 RMK AO2 SLP161 T02890161 $RWY 14
33872PD25-AUG-22DYNGYOUNGSTOWN-WARREN RGNLPA28/ANULL91N/AKYNG 251951Z 23010G16KT 10SM BKN055 29/16 A3003 RMK AO2 SLP161 T02890161 $RWY 14
33870PD25-AUG-22CBOSGENERAL EDWARD LAWRENCE LOGAN INTLA339E75S121121KBOS 251954Z 10013KT 10SM SCT070 27/18 A2999 RMK AO2 SLP156 T02670183RY 4L
33869PD25-AUG-22DDWHDAVID WAYNE HOOKS MEMORIALPA28/ANULL91N/AKDWH 251853Z COR VRB03KT 10SM SCT047 SCT060 33/22 A2997 RMK AO2 SLP145 T03280222RWY 35R
33868PD25-AUG-22DBILBILLINGS LOGAN INTLC510NULL91N/AKBIL 251353Z 04006KT 10SM BKN012 OVC040 17/14 A3019 RMK AO2 SLP197 T01720139RWY 7
33867PD25-AUG-22DSUXSIOUX GATEWAY/BRIG GEN BUD DAY FIELDBE30NULL91N/AKSUX 251252Z 35006KT 10SM CLR 21/18 A3011 RMK AO2 SLP188 T02060178RWY 36